Time;durP1;ratioP1;P1;durP2;ratioP2;P2;SDS_P1;SDS_P2;PMS_P1;PMS_P2;Temp;Humidity;BMP_temperature;BMP_pressure;BME280_temperature;BME280_humidity;BME280_pressure;Samples;Min_cycle;Max_cycle;Signal;HPM_P1;HPM_P2
2022/07/25 00:01:33;;;;;;;20.57;10.17;;;19.30;41.60;;;;;;5060003;28;47117;-73
2022/07/25 00:03:58;;;;;;;13.60;10.10;;;19.30;41.70;;;;;;5061464;28;46381;-73
2022/07/25 00:06:24;;;;;;;15.07;9.83;;;19.20;41.90;;;;;;5061169;28;46434;-72
2022/07/25 00:08:49;;;;;;;10.63;9.10;;;19.20;42.00;;;;;;5058368;28;46360;-73
2022/07/25 00:11:15;;;;;;;13.50;9.70;;;19.30;42.00;;;;;;5058490;28;47119;-73
2022/07/25 00:13:41;;;;;;;13.50;9.83;;;19.30;42.00;;;;;;5060669;28;46390;-72
2022/07/25 00:16:06;;;;;;;12.80;9.57;;;19.20;42.00;;;;;;5060740;28;46432;-73
2022/07/25 00:18:32;;;;;;;12.80;10.03;;;19.20;42.30;;;;;;5060312;28;46416;-72
2022/07/25 00:20:58;;;;;;;14.20;9.83;;;19.10;42.60;;;;;;5059850;28;46330;-72
2022/07/25 00:23:23;;;;;;;19.33;10.03;;;18.90;42.70;;;;;;5062406;28;45879;-72
2022/07/25 00:25:49;;;;;;;18.73;10.70;;;18.80;43.20;;;;;;5060093;28;46434;-73
2022/07/25 00:28:15;;;;;;;16.43;10.60;;;18.70;43.70;;;;;;5058921;28;46542;-72
2022/07/25 00:30:40;;;;;;;15.00;11.47;;;18.60;44.10;;;;;;5058741;28;46473;-72
2022/07/25 00:33:06;;;;;;;17.63;11.80;;;18.50;44.40;;;;;;5059569;28;46473;-72
2022/07/25 00:35:31;;;;;;;17.50;11.33;;;18.40;44.80;;;;;;5058644;28;46734;-72
2022/07/25 00:37:57;;;;;;;29.37;11.77;;;18.40;45.00;;;;;;5058691;28;46254;-72
2022/07/25 00:40:23;;;;;;;16.23;10.87;;;18.30;45.40;;;;;;5058342;28;46452;-72
2022/07/25 00:42:48;;;;;;;14.70;11.23;;;18.40;45.50;;;;;;5060186;28;46488;-72
2022/07/25 00:45:14;;;;;;;15.60;12.07;;;18.40;45.50;;;;;;5060410;28;46431;-71
2022/07/25 00:47:39;;;;;;;16.73;12.70;;;18.40;45.50;;;;;;5057515;28;46400;-71
2022/07/25 00:50:06;;;;;;;16.37;11.60;;;18.40;45.70;;;;;;5059589;28;46402;-71
2022/07/25 00:52:32;;;;;;;19.60;12.40;;;18.40;45.80;;;;;;5058749;28;45860;-71
2022/07/25 00:54:58;;;;;;;18.53;13.00;;;18.40;46.10;;;;;;5059657;28;46435;-71
2022/07/25 00:57:24;;;;;;;22.97;13.10;;;18.40;46.20;;;;;;5060837;28;46412;-72
2022/07/25 00:59:49;;;;;;;17.43;12.20;;;18.40;46.20;;;;;;5058922;28;46238;-73
2022/07/25 01:02:15;;;;;;;16.47;13.03;;;18.40;46.20;;;;;;5058691;28;46449;-72
2022/07/25 01:04:41;;;;;;;17.30;13.40;;;18.30;46.20;;;;;;5060222;28;46413;-72
2022/07/25 01:07:07;;;;;;;17.67;13.13;;;18.30;46.10;;;;;;5059873;28;46310;-73
2022/07/25 01:09:32;;;;;;;15.40;11.60;;;18.30;46.10;;;;;;5059370;28;46526;-73
2022/07/25 01:11:58;;;;;;;15.80;12.00;;;18.30;46.10;;;;;;5061402;28;46432;-73
2022/07/25 01:14:24;;;;;;;16.40;12.40;;;18.30;46.20;;;;;;5058930;28;46418;-72
2022/07/25 01:16:49;;;;;;;21.23;11.70;;;18.30;46.50;;;;;;5059728;28;46601;-72
2022/07/25 01:19:15;;;;;;;18.40;12.40;;;18.20;46.60;;;;;;5057934;28;46397;-72
2022/07/25 01:21:43;;;;;;;22.57;12.20;;;18.20;46.70;;;;;;5059457;28;46429;-72
2022/07/25 01:24:10;;;;;;;14.77;11.83;;;18.10;47.00;;;;;;5060091;28;46374;-72
2022/07/25 01:26:36;;;;;;;32.73;12.93;;;18.10;47.30;;;;;;5059868;28;46410;-73
2022/07/25 01:29:03;;;;;;;15.10;11.87;;;18.00;47.50;;;;;;5058880;28;47138;-72
2022/07/25 01:31:28;;;;;;;16.87;12.20;;;18.00;47.70;;;;;;5058949;28;46476;-72
2022/07/25 01:33:54;;;;;;;17.30;12.00;;;17.90;47.80;;;;;;5058995;28;46436;-72
2022/07/25 01:36:19;;;;;;;18.77;12.97;;;17.90;48.00;;;;;;5059648;28;46370;-72
2022/07/25 01:38:45;;;;;;;14.37;11.90;;;17.80;48.00;;;;;;5059606;28;46323;-72
2022/07/25 01:41:11;;;;;;;22.80;12.93;;;17.80;48.00;;;;;;5059815;28;46385;-72
2022/07/25 01:43:36;;;;;;;19.87;13.10;;;17.80;48.10;;;;;;5057742;28;46418;-72
2022/07/25 01:46:02;;;;;;;17.80;12.77;;;17.80;48.30;;;;;;5060467;28;45904;-72
2022/07/25 01:48:27;;;;;;;20.33;14.07;;;17.90;48.40;;;;;;5060461;28;46506;-72
2022/07/25 01:50:53;;;;;;;19.47;13.37;;;17.90;48.30;;;;;;5061673;28;45780;-73
2022/07/25 01:53:19;;;;;;;19.77;13.40;;;17.90;48.30;;;;;;5061180;28;46417;-69
2022/07/25 01:55:45;;;;;;;23.30;12.70;;;17.90;48.30;;;;;;5059738;28;46498;-68
2022/07/25 01:58:10;;;;;;;20.43;15.13;;;18.00;48.40;;;;;;5058365;28;47185;-69
2022/07/25 02:00:36;;;;;;;15.20;12.20;;;18.00;48.50;;;;;;5058995;28;46263;-69
2022/07/25 02:05:46;;;;;;;21.73;13.27;;;17.90;48.70;;;;;;5058968;28;46385;-69
2022/07/25 02:08:12;;;;;;;17.67;13.23;;;17.90;48.90;;;;;;5060869;28;46370;-68
2022/07/25 02:10:38;;;;;;;17.90;13.00;;;17.80;49.10;;;;;;5060157;28;46813;-69
2022/07/25 02:13:03;;;;;;;23.20;13.67;;;17.80;49.30;;;;;;5061832;28;46499;-68
2022/07/25 02:15:29;;;;;;;18.93;13.60;;;17.80;49.50;;;;;;5060707;28;46460;-68
2022/07/25 02:17:55;;;;;;;20.97;13.57;;;17.70;49.60;;;;;;5061172;28;47244;-68
2022/07/25 02:20:20;;;;;;;17.87;13.10;;;17.70;49.80;;;;;;5059069;28;46462;-69
2022/07/25 02:22:46;;;;;;;17.90;13.57;;;17.70;49.90;;;;;;5060861;28;46669;-68
2022/07/25 02:25:11;;;;;;;19.73;13.30;;;17.70;49.90;;;;;;5059765;28;46452;-68
2022/07/25 02:27:37;;;;;;;20.30;13.77;;;17.80;49.80;;;;;;5056773;28;46406;-68
2022/07/25 02:30:04;;;;;;;19.70;13.50;;;17.80;49.80;;;;;;5058046;28;46501;-68
2022/07/25 02:32:29;;;;;;;19.37;13.40;;;17.80;49.60;;;;;;5060452;28;45874;-69
2022/07/25 02:34:57;;;;;;;17.20;14.47;;;17.90;49.70;;;;;;5061412;28;46256;-69
2022/07/25 02:37:23;;;;;;;21.80;15.03;;;17.90;49.70;;;;;;5060544;28;46794;-68
2022/07/25 02:39:49;;;;;;;20.63;13.70;;;17.80;49.80;;;;;;5057353;28;46952;-68
2022/07/25 02:42:14;;;;;;;21.73;13.80;;;17.80;49.90;;;;;;5058415;28;46007;-68
2022/07/25 02:44:40;;;;;;;17.17;14.27;;;17.80;50.00;;;;;;5064087;28;46642;-68
2022/07/25 02:47:06;;;;;;;17.70;12.90;;;17.80;50.00;;;;;;5062114;28;48262;-70
2022/07/25 02:49:31;;;;;;;18.60;12.60;;;17.90;50.00;;;;;;5060883;28;46422;-68
2022/07/25 02:51:57;;;;;;;16.73;11.07;;;17.80;50.00;;;;;;5059636;28;46408;-68
2022/07/25 02:54:23;;;;;;;20.50;12.87;;;17.70;50.20;;;;;;5062424;28;46290;-69
2022/07/25 02:56:48;;;;;;;18.50;11.73;;;17.70;50.30;;;;;;5061210;28;46405;-69
2022/07/25 02:59:14;;;;;;;21.50;13.20;;;17.60;50.40;;;;;;5060746;28;46406;-69
2022/07/25 03:01:39;;;;;;;22.93;13.67;;;17.60;50.50;;;;;;5062325;28;46451;-69
2022/07/25 03:04:05;;;;;;;19.13;12.80;;;17.50;50.60;;;;;;5061962;28;46286;-69
2022/07/25 03:06:30;;;;;;;19.83;13.10;;;17.40;50.70;;;;;;5060079;28;46445;-69
2022/07/25 03:08:56;;;;;;;17.57;12.90;;;17.40;50.90;;;;;;5060174;28;46400;-69
2022/07/25 03:11:22;;;;;;;21.97;12.43;;;17.40;50.90;;;;;;5060655;28;45767;-69
2022/07/25 03:13:47;;;;;;;18.23;12.43;;;17.30;50.90;;;;;;5061157;28;46395;-69
2022/07/25 03:16:13;;;;;;;15.83;12.50;;;17.30;51.00;;;;;;5060694;28;46332;-69
2022/07/25 03:18:38;;;;;;;22.37;13.20;;;17.30;51.10;;;;;;5061948;28;46650;-69
2022/07/25 03:21:04;;;;;;;20.77;12.47;;;17.30;51.30;;;;;;5065603;28;46395;-69
2022/07/25 03:23:30;;;;;;;21.20;12.83;;;17.20;51.20;;;;;;5062268;28;46315;-69
2022/07/25 03:25:56;;;;;;;21.53;11.80;;;17.20;51.30;;;;;;5061279;28;47967;-69
2022/07/25 03:28:23;;;;;;;24.17;13.37;;;17.20;51.30;;;;;;5061471;28;46475;-69
2022/07/25 03:30:49;;;;;;;22.40;13.20;;;17.10;51.50;;;;;;5060624;28;45876;-69
2022/07/25 03:33:14;;;;;;;17.47;13.27;;;17.10;51.60;;;;;;5062945;28;46435;-69
2022/07/25 03:35:40;;;;;;;15.70;12.83;;;17.10;51.90;;;;;;5059571;28;46298;-69
2022/07/25 03:38:06;;;;;;;19.03;12.70;;;17.10;51.90;;;;;;5060868;28;46396;-69
2022/07/25 03:40:32;;;;;;;18.20;13.00;;;17.10;51.90;;;;;;5061109;28;46409;-71
2022/07/25 03:42:58;;;;;;;17.17;12.57;;;17.10;51.90;;;;;;5055885;28;46714;-72
2022/07/25 03:45:24;;;;;;;18.13;13.40;;;17.20;51.90;;;;;;5058666;28;47075;-72
2022/07/25 03:47:49;;;;;;;17.40;13.33;;;17.30;51.80;;;;;;5057920;28;45866;-72
2022/07/25 03:50:15;;;;;;;30.20;13.00;;;17.30;51.60;;;;;;5060635;28;46627;-71
2022/07/25 03:52:40;;;;;;;25.63;12.43;;;17.40;51.60;;;;;;5061274;28;46053;-71
2022/07/25 03:55:08;;;;;;;15.97;12.20;;;17.40;51.60;;;;;;5061169;28;46364;-71
2022/07/25 03:57:33;;;;;;;24.43;15.00;;;17.30;51.80;;;;;;5059807;28;46364;-71
2022/07/25 03:59:59;;;;;;;21.33;14.17;;;17.40;51.90;;;;;;5059702;28;46303;-71
2022/07/25 04:02:25;;;;;;;25.20;17.90;;;17.40;51.90;;;;;;5061812;28;46733;-72
2022/07/25 04:04:50;;;;;;;25.50;17.90;;;17.50;51.90;;;;;;5058986;28;47495;-71
2022/07/25 04:07:16;;;;;;;22.60;17.00;;;17.60;51.70;;;;;;5067693;27;46675;-71
2022/07/25 04:09:42;;;;;;;20.03;15.00;;;17.70;52.00;;;;;;5060703;28;45925;-72
2022/07/25 04:12:08;;;;;;;19.93;12.70;;;17.80;52.00;;;;;;5060411;28;46409;-72
2022/07/25 04:14:33;;;;;;;21.73;14.23;;;17.80;52.10;;;;;;5060001;28;47287;-71
2022/07/25 04:16:59;;;;;;;26.93;13.67;;;17.80;52.10;;;;;;5059697;28;46350;-71
2022/07/25 04:19:24;;;;;;;19.20;13.70;;;17.80;52.20;;;;;;5060297;28;46448;-72
2022/07/25 04:21:50;;;;;;;20.40;14.00;;;17.80;52.30;;;;;;5060402;28;46403;-72
2022/07/25 04:24:16;;;;;;;20.17;13.73;;;17.80;52.20;;;;;;5059145;28;46427;-72
2022/07/25 04:26:41;;;;;;;21.93;14.50;;;17.90;52.00;;;;;;5059765;28;46379;-72
2022/07/25 04:29:07;;;;;;;24.40;14.50;;;18.00;51.80;;;;;;5058420;28;46434;-72
2022/07/25 04:31:32;;;;;;;23.90;14.13;;;18.10;51.60;;;;;;5059835;28;47924;-71
2022/07/25 04:33:58;;;;;;;20.73;13.43;;;18.20;51.40;;;;;;5059094;28;49405;-71
2022/07/25 04:36:25;;;;;;;20.03;12.97;;;18.30;51.40;;;;;;5060940;28;46537;-72
2022/07/25 04:38:51;;;;;;;21.40;14.00;;;18.30;51.20;;;;;;5059453;28;46767;-72
2022/07/25 04:41:17;;;;;;;19.40;14.70;;;18.40;51.10;;;;;;5060190;28;46224;-72
2022/07/25 04:43:42;;;;;;;22.00;15.57;;;18.60;50.90;;;;;;5059623;28;46785;-72
2022/07/25 04:46:08;;;;;;;25.97;14.57;;;18.70;50.80;;;;;;5060980;28;46716;-72
2022/07/25 04:48:34;;;;;;;33.40;15.73;;;18.90;50.50;;;;;;5059893;28;46707;-72
2022/07/25 04:51:00;;;;;;;20.10;14.40;;;18.90;50.30;;;;;;5061875;28;46318;-72
2022/07/25 04:53:25;;;;;;;19.43;14.90;;;19.10;50.10;;;;;;5060489;28;46089;-71
2022/07/25 04:55:51;;;;;;;21.80;15.20;;;19.20;51.10;;;;;;5058777;28;46386;-71
2022/07/25 04:58:17;;;;;;;25.23;15.40;;;19.40;49.70;;;;;;5058886;28;45933;-72
2022/07/25 05:00:42;;;;;;;24.43;14.80;;;19.50;49.50;;;;;;5057925;28;46623;-71
2022/07/25 05:03:08;;;;;;;17.20;13.77;;;19.90;49.30;;;;;;5059755;28;46088;-72
2022/07/25 05:05:34;;;;;;;17.83;12.17;;;21.10;48.60;;;;;;5060383;28;46303;-71
2022/07/25 05:07:59;;;;;;;22.67;13.83;;;22.60;44.80;;;;;;5058042;28;45720;-72
2022/07/25 05:10:27;;;;;;;22.50;12.00;;;24.00;40.60;;;;;;5060987;28;46358;-72
2022/07/25 05:12:52;;;;;;;17.00;10.83;;;25.10;37.20;;;;;;5058697;28;46402;-72
2022/07/25 05:15:18;;;;;;;14.37;11.47;;;25.90;34.00;;;;;;5061223;28;46431;-72
2022/07/25 05:17:44;;;;;;;14.90;11.10;;;26.70;31.90;;;;;;5057997;28;46498;-72
2022/07/25 05:20:10;;;;;;;12.73;10.57;;;27.40;29.20;;;;;;5060738;28;46575;-71
2022/07/25 05:22:36;;;;;;;13.97;10.20;;;28.00;27.60;;;;;;5057761;28;46509;-72
2022/07/25 05:25:02;;;;;;;13.00;10.90;;;28.50;26.20;;;;;;5063962;28;46493;-71
2022/07/25 05:27:30;;;;;;;13.47;11.20;;;29.10;24.50;;;;;;5062975;28;46398;-70
2022/07/25 05:29:56;;;;;;;12.60;10.80;;;29.50;23.20;;;;;;5064094;28;46807;-70
2022/07/25 05:32:21;;;;;;;17.17;11.27;;;30.00;22.00;;;;;;5060683;28;46418;-72
2022/07/25 05:34:47;;;;;;;15.60;10.20;;;30.50;21.10;;;;;;5063341;28;46238;-70
2022/07/25 05:37:12;;;;;;;15.00;10.50;;;30.90;20.00;;;;;;5061616;28;46488;-70
2022/07/25 05:39:39;;;;;;;14.63;10.70;;;31.50;19.40;;;;;;5060549;28;46364;-70
2022/07/25 05:42:06;;;;;;;12.60;10.10;;;32.00;17.20;;;;;;5061385;28;46037;-71
2022/07/25 05:44:31;;;;;;;13.07;10.80;;;32.50;15.50;;;;;;5066733;28;46447;-70
2022/07/25 05:46:57;;;;;;;18.53;11.83;;;32.80;14.40;;;;;;5063164;28;46427;-71
2022/07/25 05:49:23;;;;;;;24.00;11.70;;;32.80;14.10;;;;;;5063701;28;46369;-71
2022/07/25 05:51:48;;;;;;;21.40;11.17;;;33.00;14.10;;;;;;5062412;28;49635;-70
2022/07/25 05:54:14;;;;;;;37.40;14.00;;;33.10;13.50;;;;;;5063146;28;46433;-66
2022/07/25 05:56:40;;;;;;;14.47;10.03;;;33.20;13.00;;;;;;5062341;28;46386;-70
2022/07/25 05:59:05;;;;;;;14.00;10.33;;;33.30;12.70;;;;;;5063539;28;46318;-70
2022/07/25 06:01:31;;;;;;;13.90;10.90;;;33.40;12.50;;;;;;5060165;28;46373;-72
2022/07/25 06:03:56;;;;;;;12.70;11.00;;;33.30;12.50;;;;;;5063339;28;46409;-70
2022/07/25 06:06:22;;;;;;;10.97;9.70;;;33.30;12.60;;;;;;5061072;28;46401;-70
2022/07/25 06:08:48;;;;;;;13.53;10.07;;;33.40;12.20;;;;;;5060654;28;46596;-70
2022/07/25 06:11:13;;;;;;;13.37;10.77;;;33.70;11.80;;;;;;5062077;28;47169;-69
2022/07/25 06:13:39;;;;;;;11.00;9.67;;;34.10;11.50;;;;;;5060485;28;46598;-70
2022/07/25 06:16:04;;;;;;;14.73;9.67;;;34.20;10.60;;;;;;5062647;28;46291;-70
2022/07/25 06:18:30;;;;;;;12.90;9.53;;;34.20;10.00;;;;;;5062298;28;46330;-70
2022/07/25 06:20:56;;;;;;;11.90;10.70;;;34.20;9.90;;;;;;5062115;28;47245;-70
2022/07/25 06:23:21;;;;;;;12.83;10.57;;;34.10;10.60;;;;;;5062740;28;45818;-70
2022/07/25 06:25:47;;;;;;;13.60;10.00;;;32.90;13.40;;;;;;5062462;28;46451;-69
2022/07/25 06:28:13;;;;;;;15.00;9.43;;;31.70;15.80;;;;;;5061102;28;46437;-70
2022/07/25 06:30:43;;;;;;;12.60;9.80;;;31.00;17.50;;;;;;5061131;28;47229;-71
2022/07/25 06:33:09;;;;;;;12.53;9.57;;;30.50;18.40;;;;;;5060828;28;46447;-69
2022/07/25 06:35:35;;;;;;;14.13;10.57;;;30.00;19.30;;;;;;5061313;28;46934;-70
2022/07/25 06:38:01;;;;;;;19.03;10.10;;;29.80;19.50;;;;;;5062316;28;46644;-70
2022/07/25 06:40:26;;;;;;;17.00;9.63;;;29.60;20.10;;;;;;5062272;28;47151;-70
2022/07/25 06:42:52;;;;;;;15.90;9.93;;;29.40;20.10;;;;;;5062532;28;46427;-71
2022/07/25 06:45:18;;;;;;;14.63;11.20;;;29.40;20.50;;;;;;5062363;28;45963;-69
2022/07/25 06:47:44;;;;;;;15.07;11.23;;;29.30;20.70;;;;;;5062132;28;45885;-70
2022/07/25 06:50:12;;;;;;;12.87;11.10;;;29.20;20.90;;;;;;5062380;28;46373;-70
2022/07/25 06:52:39;;;;;;;13.17;10.50;;;29.00;21.50;;;;;;5057731;28;46638;-69
2022/07/25 06:55:05;;;;;;;16.47;10.63;;;28.90;22.00;;;;;;5056510;28;46502;-67
2022/07/25 06:57:31;;;;;;;13.10;10.57;;;29.00;21.80;;;;;;5058583;28;46530;-68
2022/07/25 06:59:57;;;;;;;12.97;11.17;;;29.10;21.90;;;;;;5061042;28;46599;-68
2022/07/25 07:02:22;;;;;;;12.10;10.63;;;29.10;21.80;;;;;;5059925;28;46457;-69
2022/07/25 07:04:48;;;;;;;14.40;10.50;;;29.20;21.60;;;;;;5060157;28;46372;-71
2022/07/25 07:07:15;;;;;;;15.23;12.07;;;29.20;21.10;;;;;;5060713;28;45920;-70
2022/07/25 07:09:41;;;;;;;16.20;11.83;;;29.20;20.80;;;;;;5060002;28;46369;-69
2022/07/25 07:12:08;;;;;;;12.83;11.27;;;29.30;20.50;;;;;;5058622;28;46719;-70
2022/07/25 07:14:33;;;;;;;16.00;11.60;;;29.20;20.90;;;;;;5061151;28;46303;-70
2022/07/25 07:16:59;;;;;;;12.80;10.60;;;29.30;20.50;;;;;;5054806;28;46391;-70
2022/07/25 07:19:25;;;;;;;15.30;11.70;;;29.40;20.20;;;;;;5058640;28;46555;-70
2022/07/25 07:21:51;;;;;;;13.57;12.03;;;29.50;20.00;;;;;;5060400;28;46419;-70
2022/07/25 07:24:17;;;;;;;15.60;11.20;;;29.50;20.10;;;;;;5059638;28;46119;-68
2022/07/25 07:26:43;;;;;;;14.20;12.63;;;29.60;20.00;;;;;;5059186;28;46463;-68
2022/07/25 07:29:08;;;;;;;15.20;12.37;;;29.80;19.60;;;;;;5061165;28;46440;-68
2022/07/25 07:31:34;;;;;;;19.20;12.10;;;29.80;20.70;;;;;;5060535;28;45815;-68
2022/07/25 07:33:59;;;;;;;18.30;11.57;;;29.90;19.70;;;;;;5056930;28;46386;-69
2022/07/25 07:36:25;;;;;;;15.30;11.97;;;30.00;19.40;;;;;;5059306;28;46619;-70
2022/07/25 07:38:51;;;;;;;15.20;10.83;;;30.20;18.90;;;;;;5059042;28;46298;-70
2022/07/25 07:41:18;;;;;;;13.37;10.97;;;30.30;18.50;;;;;;5060390;28;45785;-68
2022/07/25 07:43:45;;;;;;;15.33;9.67;;;30.50;18.50;;;;;;5058466;28;46036;-67
2022/07/25 07:46:10;;;;;;;12.00;10.60;;;30.50;18.10;;;;;;5056115;28;46620;-69
2022/07/25 07:48:36;;;;;;;11.53;10.03;;;30.60;18.20;;;;;;5059692;28;47044;-68
2022/07/25 07:51:02;;;;;;;13.00;11.13;;;30.80;18.00;;;;;;5060108;28;46506;-71
2022/07/25 07:56:13;;;;;;;17.50;11.40;;;30.60;17.90;;;;;;5059219;28;46387;-68
2022/07/25 07:58:38;;;;;;;16.10;11.40;;;30.70;17.90;;;;;;5057406;28;47708;-68
2022/07/25 08:01:05;;;;;;;13.20;10.20;;;30.90;17.80;;;;;;5058644;28;46410;-68
2022/07/25 08:03:31;;;;;;;13.63;10.73;;;30.80;17.70;;;;;;5059463;28;46421;-69
2022/07/25 08:05:56;;;;;;;12.23;10.53;;;30.70;17.90;;;;;;5060594;28;46430;-69
2022/07/25 08:08:22;;;;;;;14.93;11.20;;;30.90;17.40;;;;;;5059527;28;46363;-70
2022/07/25 08:10:48;;;;;;;17.70;12.00;;;31.10;17.20;;;;;;5059410;28;46405;-69
2022/07/25 08:13:28;;;;;;;13.30;10.90;;;31.20;17.10;;;;;;5059725;28;46637;-69
2022/07/25 08:15:58;;;;;;;16.57;10.83;;;31.40;16.70;;;;;;5059239;28;45805;-71
2022/07/25 08:18:26;;;;;;;14.37;10.47;;;31.50;16.60;;;;;;5060977;28;46941;-71
2022/07/25 08:20:52;;;;;;;12.50;10.37;;;31.60;16.60;;;;;;5058482;28;46538;-70
2022/07/25 08:23:18;;;;;;;11.10;9.70;;;31.70;16.30;;;;;;5059085;28;46450;-71
2022/07/25 08:25:45;;;;;;;14.30;11.33;;;31.80;16.20;;;;;;5059265;28;46444;-69
2022/07/25 08:28:11;;;;;;;11.50;10.30;;;31.90;15.80;;;;;;5058805;28;46414;-68
2022/07/25 08:30:38;;;;;;;14.03;10.37;;;32.00;15.70;;;;;;5058899;28;46322;-68
2022/07/25 08:33:08;;;;;;;12.30;11.00;;;32.00;15.60;;;;;;5048445;27;46655;-68
2022/07/25 08:35:34;;;;;;;15.70;11.43;;;32.20;14.90;;;;;;5058200;28;46567;-69
2022/07/25 08:38:01;;;;;;;13.10;10.27;;;32.10;14.90;;;;;;5055083;28;46360;-68
2022/07/25 08:40:28;;;;;;;14.83;10.60;;;32.10;15.00;;;;;;5057782;28;46454;-68
2022/07/25 08:42:55;;;;;;;12.10;10.37;;;32.20;14.60;;;;;;5056791;28;46715;-69
2022/07/25 08:45:21;;;;;;;14.43;10.17;;;32.30;14.60;;;;;;5063131;28;45914;-70
2022/07/25 08:47:49;;;;;;;11.70;10.00;;;32.50;14.20;;;;;;5057242;28;47173;-69
2022/07/25 08:50:20;;;;;;;16.93;10.83;;;32.40;14.10;;;;;;5059510;28;46632;-68
2022/07/25 08:52:47;;;;;;;13.97;9.60;;;32.20;13.90;;;;;;5058687;28;46402;-70
2022/07/25 08:55:19;;;;;;;11.60;9.60;;;31.90;14.20;;;;;;5059595;28;45997;-69
2022/07/25 08:57:50;;;;;;;12.70;9.80;;;32.00;14.10;;;;;;5051749;28;46484;-69
2022/07/25 09:00:23;;;;;;;151.70;16.27;;;31.90;14.20;;;;;;5060069;28;46426;-68
2022/07/25 09:02:57;;;;;;;24.10;10.37;;;31.80;14.30;;;;;;5061905;28;46468;-68
2022/07/25 09:05:24;;;;;;;38.37;10.50;;;31.70;14.20;;;;;;5061853;28;46451;-69
2022/07/25 09:07:51;;;;;;;13.53;10.20;;;31.80;14.70;;;;;;5061472;28;46373;-67
2022/07/25 09:10:26;;;;;;;13.60;10.70;;;32.10;14.20;;;;;;5061275;28;46473;-67
2022/07/25 09:12:56;;;;;;;11.87;9.40;;;32.30;13.60;;;;;;5064797;28;46401;-70
2022/07/25 09:15:33;;;;;;;11.70;9.90;;;32.20;13.90;;;;;;5061900;28;46741;-68
2022/07/25 09:18:01;;;;;;;11.47;10.27;;;32.40;13.90;;;;;;5063533;28;46368;-69
2022/07/25 09:20:42;;;;;;;11.87;9.17;;;32.50;13.50;;;;;;5060547;28;46361;-69
2022/07/25 09:23:09;;;;;;;11.30;9.43;;;32.50;13.00;;;;;;5060014;28;46485;-70
2022/07/25 09:25:35;;;;;;;10.97;9.50;;;32.70;13.30;;;;;;5062359;28;45853;-69
2022/07/25 09:28:15;;;;;;;11.00;8.90;;;32.90;12.90;;;;;;5061191;28;46528;-70
2022/07/25 09:30:53;;;;;;;10.20;9.10;;;33.10;12.20;;;;;;5059499;28;46374;-70
2022/07/25 09:33:20;;;;;;;10.50;8.60;;;33.10;12.10;;;;;;5061412;28;46486;-70
2022/07/25 09:35:46;;;;;;;8.30;7.50;;;33.20;11.80;;;;;;5062771;28;46141;-70
2022/07/25 09:38:14;;;;;;;9.87;8.30;;;33.30;11.90;;;;;;5061926;28;46476;-69
2022/07/25 09:40:41;;;;;;;10.37;8.20;;;33.40;10.80;;;;;;5061468;28;46918;-69
2022/07/25 09:43:07;;;;;;;9.80;8.80;;;33.40;10.60;;;;;;5060213;28;46580;-68
2022/07/25 09:45:32;;;;;;;10.73;8.70;;;33.50;10.00;;;;;;5061763;28;46446;-68
2022/07/25 09:48:03;;;;;;;9.60;7.90;;;33.40;9.90;;;;;;5061717;28;46480;-67
2022/07/25 09:50:31;;;;;;;10.33;8.37;;;33.40;9.90;;;;;;5061105;28;45890;-69
2022/07/25 09:53:00;;;;;;;9.40;7.50;;;33.00;9.20;;;;;;5060296;28;46722;-69
2022/07/25 09:55:27;;;;;;;11.10;7.67;;;32.90;9.50;;;;;;5061593;28;46750;-70
2022/07/25 09:57:53;;;;;;;8.73;7.27;;;32.90;8.60;;;;;;5061774;28;47412;-68
2022/07/25 10:00:22;;;;;;;12.57;7.97;;;33.20;8.30;;;;;;5060387;28;46524;-70
2022/07/25 10:02:54;;;;;;;8.07;6.63;;;33.40;8.80;;;;;;5060158;28;46425;-70
2022/07/25 10:05:19;;;;;;;13.90;6.43;;;33.50;8.10;;;;;;5059532;28;46526;-70
2022/07/25 10:07:49;;;;;;;7.33;6.40;;;33.60;8.10;;;;;;5059629;28;47183;-70
2022/07/25 10:10:30;;;;;;;16.30;7.03;;;33.60;8.10;;;;;;5060293;28;46209;-71
2022/07/25 10:13:00;;;;;;;44.33;9.67;;;33.60;8.10;;;;;;5059472;28;46491;-71
2022/07/25 10:15:40;;;;;;;16.80;6.50;;;33.50;6.20;;;;;;5060211;28;46448;-71
2022/07/25 10:18:07;;;;;;;15.50;6.70;;;33.40;6.40;;;;;;5060354;28;46412;-70
2022/07/25 10:20:33;;;;;;;12.00;6.80;;;33.60;6.70;;;;;;5062036;28;46422;-69
2022/07/25 10:22:59;;;;;;;10.37;6.80;;;33.60;6.20;;;;;;5059260;28;46420;-67
2022/07/25 10:25:25;;;;;;;12.43;7.70;;;33.90;6.30;;;;;;5059485;28;46547;-67
2022/07/25 10:28:02;;;;;;;7.37;5.77;;;34.00;6.20;;;;;;5061376;28;47376;-67
2022/07/25 10:30:38;;;;;;;9.57;5.93;;;34.10;5.80;;;;;;5060447;28;46430;-69
2022/07/25 10:33:11;;;;;;;43.40;7.57;;;33.90;4.40;;;;;;5058864;28;46456;-68
2022/07/25 10:35:37;;;;;;;13.93;7.20;;;33.80;4.60;;;;;;5061307;28;46523;-68
2022/07/25 10:38:04;;;;;;;33.33;7.73;;;33.80;5.10;;;;;;5059777;28;47281;-69
2022/07/25 10:40:38;;;;;;;26.27;6.27;;;33.60;3.80;;;;;;5059830;28;46429;-70
2022/07/25 10:43:12;;;;;;;14.20;6.83;;;33.40;3.90;;;;;;5059839;28;46357;-68
2022/07/25 10:45:41;;;;;;;14.43;6.40;;;33.60;4.50;;;;;;5060933;27;46386;-67
2022/07/25 10:48:18;;;;;;;8.80;6.67;;;33.60;3.90;;;;;;5059696;28;46377;-69
2022/07/25 10:51:02;;;;;;;6.80;6.10;;;33.70;4.80;;;;;;5059986;28;45851;-70
2022/07/25 10:53:47;;;;;;;7.57;5.70;;;33.80;4.40;;;;;;5059566;28;46443;-68
2022/07/25 10:56:15;;;;;;;11.70;6.40;;;33.60;3.80;;;;;;5057772;28;46655;-67
2022/07/25 10:58:54;;;;;;;10.30;5.77;;;33.80;4.30;;;;;;5060520;28;46362;-68
2022/07/25 11:01:26;;;;;;;9.43;6.17;;;34.00;4.30;;;;;;5060366;28;46431;-67
2022/07/25 11:03:55;;;;;;;10.43;6.87;;;34.20;4.20;;;;;;5060459;28;46453;-68
2022/07/25 11:06:38;;;;;;;6.80;6.00;;;34.20;4.30;;;;;;5060171;28;45997;-68
2022/07/25 11:09:13;;;;;;;6.87;6.03;;;34.20;4.30;;;;;;5059590;28;46474;-70
2022/07/25 11:11:42;;;;;;;7.90;6.50;;;34.30;4.20;;;;;;5059266;28;46427;-67
2022/07/25 11:14:21;;;;;;;7.97;6.00;;;34.30;3.80;;;;;;5058068;28;46757;-70
2022/07/25 11:16:49;;;;;;;7.43;6.30;;;34.10;4.00;;;;;;5060158;28;46657;-68
2022/07/25 11:19:26;;;;;;;6.50;5.10;;;34.10;3.70;;;;;;5060166;28;46448;-65
2022/07/25 11:21:57;;;;;;;9.60;5.30;;;34.20;3.60;;;;;;5059595;28;46645;-69
2022/07/25 11:24:45;;;;;;;12.93;5.33;;;34.30;3.60;;;;;;5059668;28;46794;-69
2022/07/25 11:27:19;;;;;;;7.53;5.90;;;34.40;2.80;;;;;;5058022;28;46203;-69
2022/07/25 11:29:45;;;;;;;12.83;5.80;;;34.30;2.80;;;;;;5060495;28;47169;-69
2022/07/25 11:32:13;;;;;;;7.07;5.70;;;34.30;2.60;;;;;;5058254;28;45907;-70
2022/07/25 11:34:51;;;;;;;6.27;5.20;;;34.30;2.10;;;;;;5059131;28;46603;-66
2022/07/25 11:37:18;;;;;;;8.97;5.70;;;34.50;2.60;;;;;;5058203;28;46684;-69
2022/07/25 11:39:46;;;;;;;8.50;5.30;;;34.40;2.10;;;;;;5060219;28;47234;-70
2022/07/25 11:42:17;;;;;;;8.83;5.60;;;34.40;2.30;;;;;;5057765;28;46470;-68
2022/07/25 11:44:45;;;;;;;8.20;5.90;;;34.30;1.90;;;;;;5058964;28;46421;-69
2022/07/25 11:47:30;;;;;;;13.63;5.40;;;34.20;1.50;;;;;;5059170;28;46528;-69
2022/07/25 11:49:58;;;;;;;8.57;5.87;;;34.30;2.20;;;;;;5058961;28;46337;-71
2022/07/25 11:52:25;;;;;;;10.13;5.60;;;34.50;1.70;;;;;;5058357;28;46365;-70
2022/07/25 11:55:01;;;;;;;10.53;5.27;;;34.40;1.30;;;;;;5059147;28;46669;-70
2022/07/25 11:57:32;;;;;;;10.40;6.13;;;34.50;1.10;;;;;;5057658;28;46361;-72
2022/07/25 12:00:01;;;;;;;8.33;6.30;;;34.60;1.60;;;;;;5059740;28;46467;-69
2022/07/25 12:02:36;;;;;;;9.90;5.83;;;34.60;2.00;;;;;;5057265;28;46459;-70
2022/07/25 12:05:06;;;;;;;6.37;5.40;;;34.60;2.20;;;;;;5058638;28;46650;-68
2022/07/25 12:07:45;;;;;;;7.27;5.53;;;34.70;1.60;;;;;;5056535;28;46430;-69
2022/07/25 12:10:17;;;;;;;7.07;5.83;;;34.60;1.60;;;;;;5058445;28;46391;-68
2022/07/25 12:12:55;;;;;;;7.73;5.70;;;34.70;1.00;;;;;;5058532;28;46496;-67
2022/07/25 12:15:32;;;;;;;6.77;5.70;;;34.80;1.00;;;;;;5059717;28;46352;-67
2022/07/25 12:17:58;;;;;;;12.03;6.50;;;34.80;1.00;;;;;;5057188;28;46605;-71
2022/07/25 12:20:25;;;;;;;8.13;5.97;;;34.70;1.00;;;;;;5059479;28;46513;-70
2022/07/25 12:22:54;;;;;;;9.70;6.10;;;34.50;1.00;;;;;;5057961;28;46515;-70
2022/07/25 12:25:21;;;;;;;7.97;6.30;;;34.50;1.00;;;;;;5058994;28;46826;-69
2022/07/25 12:27:47;;;;;;;8.20;6.50;;;34.40;1.00;;;;;;5057870;28;46664;-70
2022/07/25 12:30:13;;;;;;;9.33;6.10;;;34.40;1.00;;;;;;5059220;28;46987;-68
2022/07/25 12:32:40;;;;;;;7.80;5.60;;;34.30;1.00;;;;;;5064532;27;46256;-68
2022/07/25 12:35:08;;;;;;;8.63;6.07;;;34.50;1.00;;;;;;5067451;28;46702;-69
2022/07/25 12:37:33;;;;;;;9.93;5.73;;;34.40;1.00;;;;;;5066142;28;46531;-68
2022/07/25 12:39:59;;;;;;;6.53;5.73;;;34.40;1.00;;;;;;5067646;28;46886;-68